sensor_id;sensor_type;location;lat;lon;timestamp;temperature;humidity
17483;DHT22;8858;52.308;20.994;2023-05-07T00:00:08;8.40;99.90
17483;DHT22;8858;52.308;20.994;2023-05-07T00:02:40;8.40;99.90
17483;DHT22;8858;52.308;20.994;2023-05-07T00:05:09;8.40;99.90
17483;DHT22;8858;52.308;20.994;2023-05-07T00:07:38;8.40;99.90
17483;DHT22;8858;52.308;20.994;2023-05-07T00:10:08;8.40;99.90
17483;DHT22;8858;52.308;20.994;2023-05-07T00:12:36;8.30;99.90
17483;DHT22;8858;52.308;20.994;2023-05-07T00:15:07;8.30;99.90
17483;DHT22;8858;52.308;20.994;2023-05-07T00:17:36;8.30;99.90
17483;DHT22;8858;52.308;20.994;2023-05-07T00:20:07;8.30;99.90
17483;DHT22;8858;52.308;20.994;2023-05-07T00:22:36;8.30;99.90
17483;DHT22;8858;52.308;20.994;2023-05-07T00:25:05;8.30;99.90
17483;DHT22;8858;52.308;20.994;2023-05-07T00:27:37;8.30;99.90
17483;DHT22;8858;52.308;20.994;2023-05-07T00:30:06;8.40;99.90
17483;DHT22;8858;52.308;20.994;2023-05-07T00:32:36;8.30;99.90
17483;DHT22;8858;52.308;20.994;2023-05-07T00:35:07;8.30;99.90
17483;DHT22;8858;52.308;20.994;2023-05-07T00:37:37;8.30;99.90
17483;DHT22;8858;52.308;20.994;2023-05-07T00:40:06;8.30;99.90
17483;DHT22;8858;52.308;20.994;2023-05-07T00:42:39;8.30;99.90
17483;DHT22;8858;52.308;20.994;2023-05-07T00:45:11;8.30;99.90
17483;DHT22;8858;52.308;20.994;2023-05-07T00:47:40;8.30;99.90
17483;DHT22;8858;52.308;20.994;2023-05-07T00:50:11;8.30;99.90
17483;DHT22;8858;52.308;20.994;2023-05-07T00:52:39;8.30;99.90
17483;DHT22;8858;52.308;20.994;2023-05-07T00:55:09;8.30;99.90
17483;DHT22;8858;52.308;20.994;2023-05-07T00:57:40;8.30;99.90
17483;DHT22;8858;52.308;20.994;2023-05-07T01:00:10;8.20;99.90
17483;DHT22;8858;52.308;20.994;2023-05-07T01:02:42;8.20;99.90
17483;DHT22;8858;52.308;20.994;2023-05-07T01:05:15;8.30;99.90
17483;DHT22;8858;52.308;20.994;2023-05-07T01:07:44;8.20;99.90
17483;DHT22;8858;52.308;20.994;2023-05-07T01:10:15;8.10;99.90
17483;DHT22;8858;52.308;20.994;2023-05-07T01:12:45;8.20;99.90
17483;DHT22;8858;52.308;20.994;2023-05-07T01:15:14;8.20;99.90
17483;DHT22;8858;52.308;20.994;2023-05-07T01:17:43;8.20;99.90
17483;DHT22;8858;52.308;20.994;2023-05-07T01:20:19;8.10;99.90
17483;DHT22;8858;52.308;20.994;2023-05-07T01:22:52;8.10;99.90
17483;DHT22;8858;52.308;20.994;2023-05-07T01:25:22;8.20;99.90
17483;DHT22;8858;52.308;20.994;2023-05-07T01:27:53;8.20;99.90
17483;DHT22;8858;52.308;20.994;2023-05-07T01:30:26;8.20;99.90
17483;DHT22;8858;52.308;20.994;2023-05-07T01:33:00;8.20;99.90
17483;DHT22;8858;52.308;20.994;2023-05-07T01:35:34;8.20;99.90
17483;DHT22;8858;52.308;20.994;2023-05-07T01:38:07;8.20;99.90
17483;DHT22;8858;52.308;20.994;2023-05-07T01:40:37;8.20;99.90
17483;DHT22;8858;52.308;20.994;2023-05-07T01:43:07;8.20;99.90
17483;DHT22;8858;52.308;20.994;2023-05-07T01:45:36;8.10;99.90
17483;DHT22;8858;52.308;20.994;2023-05-07T01:48:06;8.20;99.90
17483;DHT22;8858;52.308;20.994;2023-05-07T01:50:37;8.10;99.90
17483;DHT22;8858;52.308;20.994;2023-05-07T01:53:06;8.10;99.90
17483;DHT22;8858;52.308;20.994;2023-05-07T01:55:34;8.10;99.90
17483;DHT22;8858;52.308;20.994;2023-05-07T01:58:04;8.10;99.90
17483;DHT22;8858;52.308;20.994;2023-05-07T02:00:32;8.10;99.90
17483;DHT22;8858;52.308;20.994;2023-05-07T02:03:01;8.10;99.90
17483;DHT22;8858;52.308;20.994;2023-05-07T02:05:41;8.10;99.90
17483;DHT22;8858;52.308;20.994;2023-05-07T02:08:19;8.10;99.90
17483;DHT22;8858;52.308;20.994;2023-05-07T02:10:47;8.10;99.90
17483;DHT22;8858;52.308;20.994;2023-05-07T02:13:16;8.10;99.90
17483;DHT22;8858;52.308;20.994;2023-05-07T02:15:45;8.00;99.90
17483;DHT22;8858;52.308;20.994;2023-05-07T02:18:19;8.00;99.90
17483;DHT22;8858;52.308;20.994;2023-05-07T02:20:48;8.00;99.90
17483;DHT22;8858;52.308;20.994;2023-05-07T02:23:16;8.00;99.90
17483;DHT22;8858;52.308;20.994;2023-05-07T02:25:46;8.10;99.90
17483;DHT22;8858;52.308;20.994;2023-05-07T02:28:17;8.10;99.90
17483;DHT22;8858;52.308;20.994;2023-05-07T02:31:05;8.00;99.90
17483;DHT22;8858;52.308;20.994;2023-05-07T02:33:34;8.00;99.90
17483;DHT22;8858;52.308;20.994;2023-05-07T02:36:07;8.00;99.90
17483;DHT22;8858;52.308;20.994;2023-05-07T02:38:41;8.00;99.90
17483;DHT22;8858;52.308;20.994;2023-05-07T02:41:12;7.90;99.90
17483;DHT22;8858;52.308;20.994;2023-05-07T02:43:42;7.90;99.90
17483;DHT22;8858;52.308;20.994;2023-05-07T02:46:11;7.90;99.90
17483;DHT22;8858;52.308;20.994;2023-05-07T02:48:46;7.90;99.90
17483;DHT22;8858;52.308;20.994;2023-05-07T02:51:21;7.80;99.90
17483;DHT22;8858;52.308;20.994;2023-05-07T02:53:54;7.90;99.90
17483;DHT22;8858;52.308;20.994;2023-05-07T02:56:29;7.90;99.90
17483;DHT22;8858;52.308;20.994;2023-05-07T02:58:57;7.90;99.90
17483;DHT22;8858;52.308;20.994;2023-05-07T03:01:31;7.80;99.90
17483;DHT22;8858;52.308;20.994;2023-05-07T03:04:05;7.90;99.90
17483;DHT22;8858;52.308;20.994;2023-05-07T03:06:34;7.90;99.90
17483;DHT22;8858;52.308;20.994;2023-05-07T03:09:03;7.80;99.90
17483;DHT22;8858;52.308;20.994;2023-05-07T03:11:35;7.80;99.90
17483;DHT22;8858;52.308;20.994;2023-05-07T03:14:03;7.90;99.90
17483;DHT22;8858;52.308;20.994;2023-05-07T03:16:32;7.80;99.90
17483;DHT22;8858;52.308;20.994;2023-05-07T03:19:01;7.90;99.90
17483;DHT22;8858;52.308;20.994;2023-05-07T03:21:30;7.90;99.90
17483;DHT22;8858;52.308;20.994;2023-05-07T03:24:05;7.90;99.90
17483;DHT22;8858;52.308;20.994;2023-05-07T03:26:34;7.80;99.90
17483;DHT22;8858;52.308;20.994;2023-05-07T03:29:04;7.90;99.90
17483;DHT22;8858;52.308;20.994;2023-05-07T03:31:32;7.90;99.90
17483;DHT22;8858;52.308;20.994;2023-05-07T03:34:01;7.90;99.90
17483;DHT22;8858;52.308;20.994;2023-05-07T03:36:30;7.90;99.90
17483;DHT22;8858;52.308;20.994;2023-05-07T03:38:59;7.80;99.90
17483;DHT22;8858;52.308;20.994;2023-05-07T03:41:36;7.80;99.90
17483;DHT22;8858;52.308;20.994;2023-05-07T03:44:07;7.80;99.90
17483;DHT22;8858;52.308;20.994;2023-05-07T03:46:36;7.80;99.90
17483;DHT22;8858;52.308;20.994;2023-05-07T03:49:09;7.90;99.90
17483;DHT22;8858;52.308;20.994;2023-05-07T03:51:38;7.90;99.90
17483;DHT22;8858;52.308;20.994;2023-05-07T03:54:07;7.90;99.90
17483;DHT22;8858;52.308;20.994;2023-05-07T03:56:43;7.90;99.90
17483;DHT22;8858;52.308;20.994;2023-05-07T03:59:36;7.80;99.90
17483;DHT22;8858;52.308;20.994;2023-05-07T04:02:06;7.90;99.90
17483;DHT22;8858;52.308;20.994;2023-05-07T04:04:37;7.80;99.90
17483;DHT22;8858;52.308;20.994;2023-05-07T04:07:08;7.80;99.90
17483;DHT22;8858;52.308;20.994;2023-05-07T04:09:41;7.80;99.90
17483;DHT22;8858;52.308;20.994;2023-05-07T04:12:14;7.90;99.90
17483;DHT22;8858;52.308;20.994;2023-05-07T04:14:42;7.80;99.90
17483;DHT22;8858;52.308;20.994;2023-05-07T04:17:12;7.90;99.90
17483;DHT22;8858;52.308;20.994;2023-05-07T04:19:40;7.90;99.90
17483;DHT22;8858;52.308;20.994;2023-05-07T04:22:15;7.90;99.90
17483;DHT22;8858;52.308;20.994;2023-05-07T04:24:44;7.90;99.90
17483;DHT22;8858;52.308;20.994;2023-05-07T04:27:14;7.90;99.90
17483;DHT22;8858;52.308;20.994;2023-05-07T04:29:43;7.90;99.90
17483;DHT22;8858;52.308;20.994;2023-05-07T04:32:15;7.90;99.90
17483;DHT22;8858;52.308;20.994;2023-05-07T04:34:45;7.90;99.90
17483;DHT22;8858;52.308;20.994;2023-05-07T04:37:13;7.90;99.90
17483;DHT22;8858;52.308;20.994;2023-05-07T04:39:42;7.90;99.90
17483;DHT22;8858;52.308;20.994;2023-05-07T04:42:15;7.90;99.90
17483;DHT22;8858;52.308;20.994;2023-05-07T04:44:45;8.00;99.90
17483;DHT22;8858;52.308;20.994;2023-05-07T04:47:14;8.00;99.90
17483;DHT22;8858;52.308;20.994;2023-05-07T04:49:42;8.00;99.90
17483;DHT22;8858;52.308;20.994;2023-05-07T04:52:11;8.10;99.90
17483;DHT22;8858;52.308;20.994;2023-05-07T04:54:40;8.10;99.90
17483;DHT22;8858;52.308;20.994;2023-05-07T04:57:09;8.10;99.90
17483;DHT22;8858;52.308;20.994;2023-05-07T04:59:40;8.10;99.90
17483;DHT22;8858;52.308;20.994;2023-05-07T05:02:09;8.20;99.90
17483;DHT22;8858;52.308;20.994;2023-05-07T05:04:38;8.20;99.90
17483;DHT22;8858;52.308;20.994;2023-05-07T05:07:07;8.20;99.90
17483;DHT22;8858;52.308;20.994;2023-05-07T05:09:35;8.20;99.90
17483;DHT22;8858;52.308;20.994;2023-05-07T05:12:05;8.20;99.90
17483;DHT22;8858;52.308;20.994;2023-05-07T05:14:37;8.30;99.90
17483;DHT22;8858;52.308;20.994;2023-05-07T05:17:08;8.30;99.90
17483;DHT22;8858;52.308;20.994;2023-05-07T05:19:37;8.40;99.90
17483;DHT22;8858;52.308;20.994;2023-05-07T05:22:05;8.40;99.90
17483;DHT22;8858;52.308;20.994;2023-05-07T05:24:34;8.40;99.90
17483;DHT22;8858;52.308;20.994;2023-05-07T05:27:04;8.40;99.90
17483;DHT22;8858;52.308;20.994;2023-05-07T05:29:34;8.50;99.90
17483;DHT22;8858;52.308;20.994;2023-05-07T05:32:03;8.50;99.90
17483;DHT22;8858;52.308;20.994;2023-05-07T05:34:36;8.50;99.90
17483;DHT22;8858;52.308;20.994;2023-05-07T05:37:05;8.60;99.90
17483;DHT22;8858;52.308;20.994;2023-05-07T05:39:35;8.60;99.90
17483;DHT22;8858;52.308;20.994;2023-05-07T05:42:05;8.60;99.90
17483;DHT22;8858;52.308;20.994;2023-05-07T05:44:35;8.60;99.90
17483;DHT22;8858;52.308;20.994;2023-05-07T05:47:04;8.60;99.90
17483;DHT22;8858;52.308;20.994;2023-05-07T05:49:35;8.60;99.90
17483;DHT22;8858;52.308;20.994;2023-05-07T05:52:05;8.60;99.90
17483;DHT22;8858;52.308;20.994;2023-05-07T05:54:37;8.50;99.90
17483;DHT22;8858;52.308;20.994;2023-05-07T05:57:05;8.50;99.90
17483;DHT22;8858;52.308;20.994;2023-05-07T05:59:35;8.60;99.90
17483;DHT22;8858;52.308;20.994;2023-05-07T06:02:03;8.50;99.90
17483;DHT22;8858;52.308;20.994;2023-05-07T06:04:32;8.60;99.90
17483;DHT22;8858;52.308;20.994;2023-05-07T06:07:03;8.60;99.90
17483;DHT22;8858;52.308;20.994;2023-05-07T06:09:31;8.60;99.90
17483;DHT22;8858;52.308;20.994;2023-05-07T06:12:00;8.60;99.90
17483;DHT22;8858;52.308;20.994;2023-05-07T06:14:31;8.60;99.90
17483;DHT22;8858;52.308;20.994;2023-05-07T06:17:00;8.60;99.90
17483;DHT22;8858;52.308;20.994;2023-05-07T06:19:28;8.60;99.90
17483;DHT22;8858;52.308;20.994;2023-05-07T06:21:57;8.60;99.90
17483;DHT22;8858;52.308;20.994;2023-05-07T06:24:31;8.70;99.90
17483;DHT22;8858;52.308;20.994;2023-05-07T06:27:00;8.80;99.90
17483;DHT22;8858;52.308;20.994;2023-05-07T06:29:29;8.80;99.90
17483;DHT22;8858;52.308;20.994;2023-05-07T06:32:06;8.90;99.90
17483;DHT22;8858;52.308;20.994;2023-05-07T06:34:35;8.90;99.90
17483;DHT22;8858;52.308;20.994;2023-05-07T06:37:04;9.00;99.90
17483;DHT22;8858;52.308;20.994;2023-05-07T06:39:47;9.00;99.90
17483;DHT22;8858;52.308;20.994;2023-05-07T06:42:19;9.00;99.90
17483;DHT22;8858;52.308;20.994;2023-05-07T06:44:49;9.10;99.90
17483;DHT22;8858;52.308;20.994;2023-05-07T06:47:18;9.10;99.90
17483;DHT22;8858;52.308;20.994;2023-05-07T06:49:50;9.00;99.90
17483;DHT22;8858;52.308;20.994;2023-05-07T06:52:24;9.10;99.90
17483;DHT22;8858;52.308;20.994;2023-05-07T06:54:55;9.10;99.90
17483;DHT22;8858;52.308;20.994;2023-05-07T06:57:27;9.10;99.90
17483;DHT22;8858;52.308;20.994;2023-05-07T06:59:55;9.10;99.90
17483;DHT22;8858;52.308;20.994;2023-05-07T07:02:23;9.20;99.90
17483;DHT22;8858;52.308;20.994;2023-05-07T07:04:52;9.20;99.90
17483;DHT22;8858;52.308;20.994;2023-05-07T07:07:20;9.30;99.90
17483;DHT22;8858;52.308;20.994;2023-05-07T07:09:50;9.30;99.90
17483;DHT22;8858;52.308;20.994;2023-05-07T07:12:23;9.40;99.90
17483;DHT22;8858;52.308;20.994;2023-05-07T07:14:52;9.50;99.90
17483;DHT22;8858;52.308;20.994;2023-05-07T07:17:21;9.50;99.90
17483;DHT22;8858;52.308;20.994;2023-05-07T07:19:50;9.60;99.90
17483;DHT22;8858;52.308;20.994;2023-05-07T07:22:22;9.70;99.90
17483;DHT22;8858;52.308;20.994;2023-05-07T07:24:51;9.80;99.90
17483;DHT22;8858;52.308;20.994;2023-05-07T07:27:19;9.90;99.90
17483;DHT22;8858;52.308;20.994;2023-05-07T07:29:50;9.90;99.90
17483;DHT22;8858;52.308;20.994;2023-05-07T07:32:19;9.90;99.90
17483;DHT22;8858;52.308;20.994;2023-05-07T07:34:50;10.00;99.90
17483;DHT22;8858;52.308;20.994;2023-05-07T07:37:19;9.90;99.90
17483;DHT22;8858;52.308;20.994;2023-05-07T07:39:48;9.90;99.90
17483;DHT22;8858;52.308;20.994;2023-05-07T07:42:16;10.00;99.90
17483;DHT22;8858;52.308;20.994;2023-05-07T07:44:45;10.00;99.90
17483;DHT22;8858;52.308;20.994;2023-05-07T07:47:16;10.00;99.90
17483;DHT22;8858;52.308;20.994;2023-05-07T07:49:47;10.10;99.90
17483;DHT22;8858;52.308;20.994;2023-05-07T07:52:16;10.20;99.90
17483;DHT22;8858;52.308;20.994;2023-05-07T07:54:45;10.10;99.90
17483;DHT22;8858;52.308;20.994;2023-05-07T07:57:13;10.10;99.90
17483;DHT22;8858;52.308;20.994;2023-05-07T07:59:41;10.10;99.90
17483;DHT22;8858;52.308;20.994;2023-05-07T08:02:16;10.20;99.90
17483;DHT22;8858;52.308;20.994;2023-05-07T08:04:45;10.30;99.90
17483;DHT22;8858;52.308;20.994;2023-05-07T08:07:13;10.30;99.90
17483;DHT22;8858;52.308;20.994;2023-05-07T08:09:44;10.30;99.90
17483;DHT22;8858;52.308;20.994;2023-05-07T08:12:17;10.20;99.90
17483;DHT22;8858;52.308;20.994;2023-05-07T08:14:46;10.30;99.90
17483;DHT22;8858;52.308;20.994;2023-05-07T08:17:16;10.40;99.90
17483;DHT22;8858;52.308;20.994;2023-05-07T08:19:45;10.30;99.90
17483;DHT22;8858;52.308;20.994;2023-05-07T08:22:16;10.30;99.90
17483;DHT22;8858;52.308;20.994;2023-05-07T08:24:45;10.40;99.90
17483;DHT22;8858;52.308;20.994;2023-05-07T08:27:14;10.50;99.90
17483;DHT22;8858;52.308;20.994;2023-05-07T08:29:43;10.60;99.90
17483;DHT22;8858;52.308;20.994;2023-05-07T08:32:19;10.70;99.90
17483;DHT22;8858;52.308;20.994;2023-05-07T08:34:48;10.80;99.90
17483;DHT22;8858;52.308;20.994;2023-05-07T08:37:17;10.70;99.90
17483;DHT22;8858;52.308;20.994;2023-05-07T08:39:46;10.70;99.90
17483;DHT22;8858;52.308;20.994;2023-05-07T08:42:22;10.70;99.90
17483;DHT22;8858;52.308;20.994;2023-05-07T08:44:51;10.70;99.90
17483;DHT22;8858;52.308;20.994;2023-05-07T08:47:30;10.60;99.90
17483;DHT22;8858;52.308;20.994;2023-05-07T08:50:02;10.70;99.90
17483;DHT22;8858;52.308;20.994;2023-05-07T08:52:35;10.90;99.90
17483;DHT22;8858;52.308;20.994;2023-05-07T08:55:04;11.00;99.90
17483;DHT22;8858;52.308;20.994;2023-05-07T08:57:33;11.00;99.90
17483;DHT22;8858;52.308;20.994;2023-05-07T09:00:03;11.00;99.90
17483;DHT22;8858;52.308;20.994;2023-05-07T09:02:37;11.00;99.90
17483;DHT22;8858;52.308;20.994;2023-05-07T09:05:08;11.00;99.90
17483;DHT22;8858;52.308;20.994;2023-05-07T09:07:37;11.10;99.90
17483;DHT22;8858;52.308;20.994;2023-05-07T09:10:13;11.20;99.90
17483;DHT22;8858;52.308;20.994;2023-05-07T09:12:43;11.30;99.90
17483;DHT22;8858;52.308;20.994;2023-05-07T09:15:12;11.50;99.90
17483;DHT22;8858;52.308;20.994;2023-05-07T09:17:44;11.60;99.90
17483;DHT22;8858;52.308;20.994;2023-05-07T09:20:13;11.60;99.90
17483;DHT22;8858;52.308;20.994;2023-05-07T09:22:41;11.60;99.90
17483;DHT22;8858;52.308;20.994;2023-05-07T09:25:14;11.70;99.90
17483;DHT22;8858;52.308;20.994;2023-05-07T09:27:45;11.60;99.90
17483;DHT22;8858;52.308;20.994;2023-05-07T09:30:14;11.60;99.90
17483;DHT22;8858;52.308;20.994;2023-05-07T09:32:45;11.60;99.90
17483;DHT22;8858;52.308;20.994;2023-05-07T09:35:18;11.60;99.90
17483;DHT22;8858;52.308;20.994;2023-05-07T09:37:53;11.60;99.90
17483;DHT22;8858;52.308;20.994;2023-05-07T09:40:23;11.60;99.90
17483;DHT22;8858;52.308;20.994;2023-05-07T09:42:54;11.70;99.90
17483;DHT22;8858;52.308;20.994;2023-05-07T09:45:25;11.60;99.90
17483;DHT22;8858;52.308;20.994;2023-05-07T09:47:58;11.70;99.90
17483;DHT22;8858;52.308;20.994;2023-05-07T09:50:32;11.80;99.90
17483;DHT22;8858;52.308;20.994;2023-05-07T09:53:03;12.00;99.90
17483;DHT22;8858;52.308;20.994;2023-05-07T09:55:33;12.00;99.90
17483;DHT22;8858;52.308;20.994;2023-05-07T09:58:06;12.00;99.90
17483;DHT22;8858;52.308;20.994;2023-05-07T10:00:37;12.10;99.90
17483;DHT22;8858;52.308;20.994;2023-05-07T10:03:14;12.20;99.90
17483;DHT22;8858;52.308;20.994;2023-05-07T10:05:53;11.90;99.90
17483;DHT22;8858;52.308;20.994;2023-05-07T10:08:23;12.00;99.90
17483;DHT22;8858;52.308;20.994;2023-05-07T10:10:55;12.00;99.90
17483;DHT22;8858;52.308;20.994;2023-05-07T10:13:26;12.10;99.90
17483;DHT22;8858;52.308;20.994;2023-05-07T10:15:58;12.10;99.90
17483;DHT22;8858;52.308;20.994;2023-05-07T10:18:33;12.00;99.90
17483;DHT22;8858;52.308;20.994;2023-05-07T10:21:11;12.00;99.90
17483;DHT22;8858;52.308;20.994;2023-05-07T10:23:50;12.00;99.90
17483;DHT22;8858;52.308;20.994;2023-05-07T10:26:21;12.00;99.90
17483;DHT22;8858;52.308;20.994;2023-05-07T10:28:57;12.10;99.90
17483;DHT22;8858;52.308;20.994;2023-05-07T10:31:44;12.00;99.90
17483;DHT22;8858;52.308;20.994;2023-05-07T10:34:28;12.00;99.90
17483;DHT22;8858;52.308;20.994;2023-05-07T10:36:58;12.10;99.90
17483;DHT22;8858;52.308;20.994;2023-05-07T10:39:28;12.20;99.90
17483;DHT22;8858;52.308;20.994;2023-05-07T10:41:57;12.30;99.90
17483;DHT22;8858;52.308;20.994;2023-05-07T10:44:35;12.40;99.90
17483;DHT22;8858;52.308;20.994;2023-05-07T10:47:11;12.60;99.90
17483;DHT22;8858;52.308;20.994;2023-05-07T10:50:22;12.70;99.90
17483;DHT22;8858;52.308;20.994;2023-05-07T10:53:20;12.70;99.90
17483;DHT22;8858;52.308;20.994;2023-05-07T10:56:27;12.80;99.90
17483;DHT22;8858;52.308;20.994;2023-05-07T10:59:32;13.00;99.90
17483;DHT22;8858;52.308;20.994;2023-05-07T11:02:10;12.90;99.90
17483;DHT22;8858;52.308;20.994;2023-05-07T11:05:19;12.90;99.90
17483;DHT22;8858;52.308;20.994;2023-05-07T11:08:09;12.80;99.90
17483;DHT22;8858;52.308;20.994;2023-05-07T11:10:52;12.70;99.90
17483;DHT22;8858;52.308;20.994;2023-05-07T11:13:42;12.60;99.90
17483;DHT22;8858;52.308;20.994;2023-05-07T11:16:17;12.90;99.90
17483;DHT22;8858;52.308;20.994;2023-05-07T11:18:48;12.80;99.90
17483;DHT22;8858;52.308;20.994;2023-05-07T11:21:33;12.90;99.90
17483;DHT22;8858;52.308;20.994;2023-05-07T11:24:26;13.00;99.90
17483;DHT22;8858;52.308;20.994;2023-05-07T11:27:02;12.90;99.90
17483;DHT22;8858;52.308;20.994;2023-05-07T11:29:31;12.80;99.90
17483;DHT22;8858;52.308;20.994;2023-05-07T11:32:06;12.60;99.90
17483;DHT22;8858;52.308;20.994;2023-05-07T11:34:44;12.50;99.90
17483;DHT22;8858;52.308;20.994;2023-05-07T11:37:17;12.50;99.90
17483;DHT22;8858;52.308;20.994;2023-05-07T11:40:04;12.50;99.90
17483;DHT22;8858;52.308;20.994;2023-05-07T11:42:35;12.50;99.90
17483;DHT22;8858;52.308;20.994;2023-05-07T11:45:05;12.50;99.90
17483;DHT22;8858;52.308;20.994;2023-05-07T11:47:35;12.50;99.90
17483;DHT22;8858;52.308;20.994;2023-05-07T11:50:07;12.50;99.90
17483;DHT22;8858;52.308;20.994;2023-05-07T11:52:37;12.50;99.90
17483;DHT22;8858;52.308;20.994;2023-05-07T11:55:10;12.40;99.90
17483;DHT22;8858;52.308;20.994;2023-05-07T11:57:39;12.30;99.90
17483;DHT22;8858;52.308;20.994;2023-05-07T12:00:10;12.30;99.90
17483;DHT22;8858;52.308;20.994;2023-05-07T12:02:38;12.40;99.90
17483;DHT22;8858;52.308;20.994;2023-05-07T12:05:08;12.50;99.90
17483;DHT22;8858;52.308;20.994;2023-05-07T12:07:38;12.80;99.90
17483;DHT22;8858;52.308;20.994;2023-05-07T12:10:07;12.90;99.90
17483;DHT22;8858;52.308;20.994;2023-05-07T12:12:45;13.00;99.90
17483;DHT22;8858;52.308;20.994;2023-05-07T12:15:25;13.20;99.90
17483;DHT22;8858;52.308;20.994;2023-05-07T12:17:55;13.50;99.90
17483;DHT22;8858;52.308;20.994;2023-05-07T12:20:24;13.50;99.90
17483;DHT22;8858;52.308;20.994;2023-05-07T12:22:52;13.60;99.90
17483;DHT22;8858;52.308;20.994;2023-05-07T12:25:21;13.80;99.90
17483;DHT22;8858;52.308;20.994;2023-05-07T12:27:53;13.90;99.90
17483;DHT22;8858;52.308;20.994;2023-05-07T12:30:22;13.80;99.90
17483;DHT22;8858;52.308;20.994;2023-05-07T12:32:53;13.90;99.90
17483;DHT22;8858;52.308;20.994;2023-05-07T12:35:28;14.20;99.90
17483;DHT22;8858;52.308;20.994;2023-05-07T12:37:57;14.50;99.90
17483;DHT22;8858;52.308;20.994;2023-05-07T12:40:36;14.40;99.90
17483;DHT22;8858;52.308;20.994;2023-05-07T12:43:06;14.40;99.90
17483;DHT22;8858;52.308;20.994;2023-05-07T12:45:37;14.60;99.90
17483;DHT22;8858;52.308;20.994;2023-05-07T12:48:06;14.60;99.90
17483;DHT22;8858;52.308;20.994;2023-05-07T12:50:35;14.70;99.90
17483;DHT22;8858;52.308;20.994;2023-05-07T12:53:03;14.90;99.90
17483;DHT22;8858;52.308;20.994;2023-05-07T12:55:41;15.10;99.90
17483;DHT22;8858;52.308;20.994;2023-05-07T12:58:19;15.20;99.90
17483;DHT22;8858;52.308;20.994;2023-05-07T13:00:49;15.40;99.90
17483;DHT22;8858;52.308;20.994;2023-05-07T13:03:22;15.60;99.90
17483;DHT22;8858;52.308;20.994;2023-05-07T13:05:51;15.80;99.90
17483;DHT22;8858;52.308;20.994;2023-05-07T13:08:28;15.90;99.90
17483;DHT22;8858;52.308;20.994;2023-05-07T13:10:59;16.10;99.90
17483;DHT22;8858;52.308;20.994;2023-05-07T13:13:32;16.40;99.90
17483;DHT22;8858;52.308;20.994;2023-05-07T13:16:01;16.50;99.90
17483;DHT22;8858;52.308;20.994;2023-05-07T13:18:31;16.60;99.90
17483;DHT22;8858;52.308;20.994;2023-05-07T13:21:01;16.90;99.90
17483;DHT22;8858;52.308;20.994;2023-05-07T13:23:29;18.10;99.90
17483;DHT22;8858;52.308;20.994;2023-05-07T13:25:57;19.30;99.90
17483;DHT22;8858;52.308;20.994;2023-05-07T13:28:35;20.80;99.90
17483;DHT22;8858;52.308;20.994;2023-05-07T13:31:04;22.80;99.90
17483;DHT22;8858;52.308;20.994;2023-05-07T13:33:32;22.90;99.90
17483;DHT22;8858;52.308;20.994;2023-05-07T13:36:01;23.00;99.90
17483;DHT22;8858;52.308;20.994;2023-05-07T13:38:34;24.90;99.90
17483;DHT22;8858;52.308;20.994;2023-05-07T13:41:02;25.90;98.80
17483;DHT22;8858;52.308;20.994;2023-05-07T13:43:30;27.20;96.70
17483;DHT22;8858;52.308;20.994;2023-05-07T13:46:00;27.40;94.00
17483;DHT22;8858;52.308;20.994;2023-05-07T13:48:28;26.70;92.30
17483;DHT22;8858;52.308;20.994;2023-05-07T13:51:00;26.60;92.20
17483;DHT22;8858;52.308;20.994;2023-05-07T13:53:28;27.10;90.60
17483;DHT22;8858;52.308;20.994;2023-05-07T13:55:57;26.70;90.30
17483;DHT22;8858;52.308;20.994;2023-05-07T13:58:25;26.30;90.80
17483;DHT22;8858;52.308;20.994;2023-05-07T14:00:53;26.70;90.40
17483;DHT22;8858;52.308;20.994;2023-05-07T14:03:23;27.50;89.30
17483;DHT22;8858;52.308;20.994;2023-05-07T14:05:52;28.20;85.20
17483;DHT22;8858;52.308;20.994;2023-05-07T14:08:21;29.90;82.90
17483;DHT22;8858;52.308;20.994;2023-05-07T14:10:49;30.70;77.20
17483;DHT22;8858;52.308;20.994;2023-05-07T14:13:17;30.10;77.60
17483;DHT22;8858;52.308;20.994;2023-05-07T14:15:46;30.80;77.60
17483;DHT22;8858;52.308;20.994;2023-05-07T14:18:16;31.70;76.20
17483;DHT22;8858;52.308;20.994;2023-05-07T14:20:46;32.60;70.90
17483;DHT22;8858;52.308;20.994;2023-05-07T14:23:19;33.00;69.70
17483;DHT22;8858;52.308;20.994;2023-05-07T14:25:52;32.60;65.30
17483;DHT22;8858;52.308;20.994;2023-05-07T14:28:21;33.20;64.60
17483;DHT22;8858;52.308;20.994;2023-05-07T14:30:49;33.40;62.80
17483;DHT22;8858;52.308;20.994;2023-05-07T14:33:17;33.50;63.70
17483;DHT22;8858;52.308;20.994;2023-05-07T14:35:47;33.70;63.00
17483;DHT22;8858;52.308;20.994;2023-05-07T14:38:18;33.70;62.90
17483;DHT22;8858;52.308;20.994;2023-05-07T14:40:46;34.60;62.40
17483;DHT22;8858;52.308;20.994;2023-05-07T14:43:14;35.20;60.00
17483;DHT22;8858;52.308;20.994;2023-05-07T14:45:44;34.30;59.00
17483;DHT22;8858;52.308;20.994;2023-05-07T14:48:13;33.20;59.50
17483;DHT22;8858;52.308;20.994;2023-05-07T14:50:42;34.00;59.40
17483;DHT22;8858;52.308;20.994;2023-05-07T14:53:12;34.20;58.20
17483;DHT22;8858;52.308;20.994;2023-05-07T14:55:41;34.80;58.90
17483;DHT22;8858;52.308;20.994;2023-05-07T14:58:11;34.90;57.80
17483;DHT22;8858;52.308;20.994;2023-05-07T15:00:41;35.20;57.50
17483;DHT22;8858;52.308;20.994;2023-05-07T15:03:10;33.90;57.10
17483;DHT22;8858;52.308;20.994;2023-05-07T15:05:43;33.40;58.40
17483;DHT22;8858;52.308;20.994;2023-05-07T15:08:13;32.70;59.00
17483;DHT22;8858;52.308;20.994;2023-05-07T15:10:41;32.20;58.80
17483;DHT22;8858;52.308;20.994;2023-05-07T15:13:10;32.30;60.20
17483;DHT22;8858;52.308;20.994;2023-05-07T15:15:44;32.70;59.00
17483;DHT22;8858;52.308;20.994;2023-05-07T15:18:13;31.90;58.00
17483;DHT22;8858;52.308;20.994;2023-05-07T15:20:42;31.70;58.60
17483;DHT22;8858;52.308;20.994;2023-05-07T15:23:12;31.80;58.10
17483;DHT22;8858;52.308;20.994;2023-05-07T15:25:44;30.80;59.20
17483;DHT22;8858;52.308;20.994;2023-05-07T15:28:19;30.00;60.60
17483;DHT22;8858;52.308;20.994;2023-05-07T15:30:47;29.50;61.10
17483;DHT22;8858;52.308;20.994;2023-05-07T15:33:17;28.60;62.00
17483;DHT22;8858;52.308;20.994;2023-05-07T15:35:45;28.10;63.70
17483;DHT22;8858;52.308;20.994;2023-05-07T15:38:15;28.10;64.60
17483;DHT22;8858;52.308;20.994;2023-05-07T15:40:43;28.50;63.40
17483;DHT22;8858;52.308;20.994;2023-05-07T15:43:12;28.90;62.90
17483;DHT22;8858;52.308;20.994;2023-05-07T15:45:42;28.10;63.00
17483;DHT22;8858;52.308;20.994;2023-05-07T15:48:11;27.90;64.10
17483;DHT22;8858;52.308;20.994;2023-05-07T15:50:40;27.50;63.20
17483;DHT22;8858;52.308;20.994;2023-05-07T15:53:09;27.40;65.30
17483;DHT22;8858;52.308;20.994;2023-05-07T15:55:42;26.80;65.50
17483;DHT22;8858;52.308;20.994;2023-05-07T15:58:13;26.30;67.40
17483;DHT22;8858;52.308;20.994;2023-05-07T16:00:42;25.70;69.20
17483;DHT22;8858;52.308;20.994;2023-05-07T16:03:11;25.30;69.30